Pagrindinis puslapis
METAR-TAF:

METAR-TAF

Oro uostai :

Salt Lake City International Airport

Solt Leik Sitis, Juta, Jungtinės Amerikos Valstijos

platuma: 40-46-41N, ilguma: 111-58-10W, Aukštis: 1288 m

Dabartinis oras

Ataskaita buvo paskelbta 44 minutes, ne 23:54 UTC
Vėjas 12 kt iš Vakarų/Šiaurės Vakarų
Temperatūra 4°C
Drėgmė 32%
Slėgis 1024 hPa
Matomumas: 16.1 km
Mažai debesys ne aukštis 5500 ft
Mažai debesys ne aukštis 8000 ft
Išsisklaidę debesys ne aukštis 20000 ft

METAR: KSLC 242354Z 30012KT 10SM FEW055 FEW080 SCT200 04/M11 A3025 RMK AO2 SLP249 T00441106 10050 20022 56013

Laikas: 17:38 (00:38 UTC)

Prognozė

Ataskaita buvo paskelbta 1 valandą ir 15 minutes, ne 23:23 UTC
Prognozė galioja nuo 25 metu 00 UTC su 26 metu 06 UTC
Vėjas 11 kt iš Šiaurės/Šiaurės Vakarų
Matomumas: 10 km
Išsisklaidę debesys ne aukštis 6000 ft
Nuo 25 metu 0700 UTC
Vėjas 6 kt iš Šiaurės/Šiaurės Vakarų
Matomumas: 10 km
Mažai debesys ne aukštis 6000 ft
Išsisklaidę debesys ne aukštis 9000 ft

TAF: KSLC 242323Z 2500/2606 34011KT P6SM SCT060 FM250700 33006KT P6SM FEW060 SCT090

Orai ataskaitas ir orų prognozės (METAR, TAF).

turimą stotys yra geltonos ir raudonos taškus žemėlapyje.

Perkelti pele per norėdami pamatyti stoties vardą.

Tada spustelėkite, norėdami matyti oro stebėjimo ir prognozės.

Norėdami pakeisti žemėlapį: spustelėkite ant žalios mygtukų su juodo kryžiaus žemyn,; žalią mygtuką su brūkšneliu, jei norite nutolinti; arba žalių rodyklių gretimoms žemėlapius.


METAR-TAF: